sensor_id;sensor_type;location;lat;lon;timestamp;P1;durP1;ratioP1;P2;durP2;ratioP2
41532;SDS011;27262;-35.248;149.138;2023-11-21T00:00:28;11.45;;;3.17;;
41532;SDS011;27262;-35.248;149.138;2023-11-21T00:02:58;12.73;;;3.00;;
41532;SDS011;27262;-35.248;149.138;2023-11-21T00:05:29;9.85;;;2.83;;
41532;SDS011;27262;-35.248;149.138;2023-11-21T00:07:59;9.25;;;3.00;;
41532;SDS011;27262;-35.248;149.138;2023-11-21T00:10:29;8.20;;;2.70;;
41532;SDS011;27262;-35.248;149.138;2023-11-21T00:13:00;9.07;;;2.30;;
41532;SDS011;27262;-35.248;149.138;2023-11-21T00:15:31;6.90;;;2.38;;
41532;SDS011;27262;-35.248;149.138;2023-11-21T00:18:01;8.52;;;2.83;;
41532;SDS011;27262;-35.248;149.138;2023-11-21T00:20:32;10.07;;;3.05;;
41532;SDS011;27262;-35.248;149.138;2023-11-21T00:23:02;9.18;;;2.25;;
41532;SDS011;27262;-35.248;149.138;2023-11-21T00:25:33;7.28;;;2.58;;
41532;SDS011;27262;-35.248;149.138;2023-11-21T00:28:03;8.52;;;1.92;;
41532;SDS011;27262;-35.248;149.138;2023-11-21T00:30:34;7.93;;;2.00;;
41532;SDS011;27262;-35.248;149.138;2023-11-21T00:33:04;7.32;;;2.25;;
41532;SDS011;27262;-35.248;149.138;2023-11-21T00:35:35;3.85;;;2.13;;
41532;SDS011;27262;-35.248;149.138;2023-11-21T00:38:06;7.20;;;2.10;;
41532;SDS011;27262;-35.248;149.138;2023-11-21T00:40:37;8.32;;;2.53;;
41532;SDS011;27262;-35.248;149.138;2023-11-21T00:43:08;5.78;;;1.92;;
41532;SDS011;27262;-35.248;149.138;2023-11-21T00:45:38;5.50;;;2.00;;
41532;SDS011;27262;-35.248;149.138;2023-11-21T00:48:09;5.10;;;1.90;;
41532;SDS011;27262;-35.248;149.138;2023-11-21T00:50:43;4.35;;;2.05;;
41532;SDS011;27262;-35.248;149.138;2023-11-21T00:53:14;9.75;;;2.08;;
41532;SDS011;27262;-35.248;149.138;2023-11-21T00:55:45;4.38;;;1.70;;
41532;SDS011;27262;-35.248;149.138;2023-11-21T00:58:16;3.75;;;1.77;;
41532;SDS011;27262;-35.248;149.138;2023-11-21T01:00:46;3.97;;;1.35;;
41532;SDS011;27262;-35.248;149.138;2023-11-21T01:03:17;6.15;;;1.85;;
41532;SDS011;27262;-35.248;149.138;2023-11-21T01:05:47;6.47;;;2.00;;
41532;SDS011;27262;-35.248;149.138;2023-11-21T01:08:18;4.32;;;2.00;;
41532;SDS011;27262;-35.248;149.138;2023-11-21T01:10:50;8.95;;;1.95;;
41532;SDS011;27262;-35.248;149.138;2023-11-21T01:13:20;3.72;;;1.92;;
41532;SDS011;27262;-35.248;149.138;2023-11-21T01:15:50;5.15;;;1.80;;
41532;SDS011;27262;-35.248;149.138;2023-11-21T01:18:21;4.10;;;1.90;;
41532;SDS011;27262;-35.248;149.138;2023-11-21T01:20:54;5.93;;;1.98;;
41532;SDS011;27262;-35.248;149.138;2023-11-21T01:23:24;2.88;;;1.50;;
41532;SDS011;27262;-35.248;149.138;2023-11-21T01:25:55;6.70;;;2.00;;
41532;SDS011;27262;-35.248;149.138;2023-11-21T01:28:26;5.10;;;1.73;;
41532;SDS011;27262;-35.248;149.138;2023-11-21T01:30:59;4.80;;;1.60;;
41532;SDS011;27262;-35.248;149.138;2023-11-21T01:33:30;5.20;;;1.73;;
41532;SDS011;27262;-35.248;149.138;2023-11-21T01:36:00;4.88;;;1.70;;
41532;SDS011;27262;-35.248;149.138;2023-11-21T01:38:31;7.22;;;1.80;;
41532;SDS011;27262;-35.248;149.138;2023-11-21T01:41:01;3.72;;;1.60;;
41532;SDS011;27262;-35.248;149.138;2023-11-21T01:43:32;3.65;;;1.70;;
41532;SDS011;27262;-35.248;149.138;2023-11-21T01:46:03;4.20;;;1.60;;
41532;SDS011;27262;-35.248;149.138;2023-11-21T01:48:34;4.72;;;1.73;;
41532;SDS011;27262;-35.248;149.138;2023-11-21T01:51:05;3.63;;;1.67;;
41532;SDS011;27262;-35.248;149.138;2023-11-21T01:53:35;3.30;;;1.90;;
41532;SDS011;27262;-35.248;149.138;2023-11-21T01:56:06;2.95;;;1.30;;
41532;SDS011;27262;-35.248;149.138;2023-11-21T01:58:38;4.65;;;1.63;;
41532;SDS011;27262;-35.248;149.138;2023-11-21T02:01:10;4.38;;;1.67;;
41532;SDS011;27262;-35.248;149.138;2023-11-21T02:03:40;4.10;;;1.48;;
41532;SDS011;27262;-35.248;149.138;2023-11-21T02:06:10;4.57;;;1.63;;
41532;SDS011;27262;-35.248;149.138;2023-11-21T02:08:41;5.72;;;1.35;;
41532;SDS011;27262;-35.248;149.138;2023-11-21T02:11:12;4.28;;;1.80;;
41532;SDS011;27262;-35.248;149.138;2023-11-21T02:13:45;3.33;;;1.58;;
41532;SDS011;27262;-35.248;149.138;2023-11-21T02:16:18;4.93;;;1.60;;
41532;SDS011;27262;-35.248;149.138;2023-11-21T02:18:49;3.53;;;1.63;;
41532;SDS011;27262;-35.248;149.138;2023-11-21T02:21:21;4.57;;;1.60;;
41532;SDS011;27262;-35.248;149.138;2023-11-21T02:23:52;4.35;;;2.05;;
41532;SDS011;27262;-35.248;149.138;2023-11-21T02:26:23;6.38;;;1.80;;
41532;SDS011;27262;-35.248;149.138;2023-11-21T02:28:54;3.60;;;1.50;;
41532;SDS011;27262;-35.248;149.138;2023-11-21T02:31:26;4.15;;;1.48;;
41532;SDS011;27262;-35.248;149.138;2023-11-21T02:33:57;3.95;;;1.60;;
41532;SDS011;27262;-35.248;149.138;2023-11-21T02:36:27;4.88;;;1.58;;
41532;SDS011;27262;-35.248;149.138;2023-11-21T02:38:58;2.78;;;1.40;;
41532;SDS011;27262;-35.248;149.138;2023-11-21T02:41:28;2.88;;;1.52;;
41532;SDS011;27262;-35.248;149.138;2023-11-21T02:43:59;4.00;;;1.48;;
41532;SDS011;27262;-35.248;149.138;2023-11-21T02:46:29;3.75;;;1.67;;
41532;SDS011;27262;-35.248;149.138;2023-11-21T02:49:02;2.90;;;1.52;;
41532;SDS011;27262;-35.248;149.138;2023-11-21T02:51:34;1.98;;;1.35;;
41532;SDS011;27262;-35.248;149.138;2023-11-21T02:54:06;4.07;;;1.70;;
41532;SDS011;27262;-35.248;149.138;2023-11-21T02:56:37;4.32;;;2.17;;
41532;SDS011;27262;-35.248;149.138;2023-11-21T02:59:08;2.72;;;1.63;;
41532;SDS011;27262;-35.248;149.138;2023-11-21T03:01:39;4.75;;;1.83;;
41532;SDS011;27262;-35.248;149.138;2023-11-21T03:04:09;3.72;;;1.45;;
41532;SDS011;27262;-35.248;149.138;2023-11-21T03:06:39;3.70;;;1.67;;
41532;SDS011;27262;-35.248;149.138;2023-11-21T03:09:10;1.88;;;1.25;;
41532;SDS011;27262;-35.248;149.138;2023-11-21T03:11:44;5.22;;;1.70;;
41532;SDS011;27262;-35.248;149.138;2023-11-21T03:14:15;2.72;;;1.45;;
41532;SDS011;27262;-35.248;149.138;2023-11-21T03:16:45;3.33;;;1.80;;
41532;SDS011;27262;-35.248;149.138;2023-11-21T03:19:18;2.95;;;1.33;;
41532;SDS011;27262;-35.248;149.138;2023-11-21T03:21:48;2.47;;;1.20;;
41532;SDS011;27262;-35.248;149.138;2023-11-21T03:24:21;3.13;;;1.42;;
41532;SDS011;27262;-35.248;149.138;2023-11-21T03:26:52;2.35;;;1.45;;
41532;SDS011;27262;-35.248;149.138;2023-11-21T03:29:22;2.78;;;1.38;;
41532;SDS011;27262;-35.248;149.138;2023-11-21T03:31:53;6.22;;;1.58;;
41532;SDS011;27262;-35.248;149.138;2023-11-21T03:34:24;3.30;;;1.60;;
41532;SDS011;27262;-35.248;149.138;2023-11-21T03:36:56;2.35;;;1.45;;
41532;SDS011;27262;-35.248;149.138;2023-11-21T03:39:27;3.78;;;1.42;;
41532;SDS011;27262;-35.248;149.138;2023-11-21T03:41:58;2.15;;;1.42;;
41532;SDS011;27262;-35.248;149.138;2023-11-21T03:44:28;1.83;;;1.35;;
41532;SDS011;27262;-35.248;149.138;2023-11-21T03:46:58;2.05;;;1.38;;
41532;SDS011;27262;-35.248;149.138;2023-11-21T03:49:29;1.92;;;1.30;;
41532;SDS011;27262;-35.248;149.138;2023-11-21T03:51:59;4.43;;;1.50;;
41532;SDS011;27262;-35.248;149.138;2023-11-21T03:54:31;1.83;;;1.30;;
41532;SDS011;27262;-35.248;149.138;2023-11-21T03:57:01;1.45;;;1.15;;
41532;SDS011;27262;-35.248;149.138;2023-11-21T03:59:31;1.92;;;1.33;;
41532;SDS011;27262;-35.248;149.138;2023-11-21T04:02:02;1.63;;;1.20;;
41532;SDS011;27262;-35.248;149.138;2023-11-21T04:04:33;3.67;;;1.20;;
41532;SDS011;27262;-35.248;149.138;2023-11-21T04:07:04;2.30;;;1.20;;
41532;SDS011;27262;-35.248;149.138;2023-11-21T04:09:55;2.05;;;1.45;;
41532;SDS011;27262;-35.248;149.138;2023-11-21T04:12:45;2.05;;;1.23;;
41532;SDS011;27262;-35.248;149.138;2023-11-21T04:15:36;3.50;;;1.40;;
41532;SDS011;27262;-35.248;149.138;2023-11-21T04:18:27;2.03;;;1.20;;
41532;SDS011;27262;-35.248;149.138;2023-11-21T04:21:17;1.58;;;1.23;;
41532;SDS011;27262;-35.248;149.138;2023-11-21T04:24:07;3.05;;;1.33;;
41532;SDS011;27262;-35.248;149.138;2023-11-21T04:26:58;2.60;;;1.50;;
41532;SDS011;27262;-35.248;149.138;2023-11-21T04:29:49;3.28;;;1.52;;
41532;SDS011;27262;-35.248;149.138;2023-11-21T04:32:39;5.43;;;1.40;;
41532;SDS011;27262;-35.248;149.138;2023-11-21T04:35:30;2.03;;;1.30;;
41532;SDS011;27262;-35.248;149.138;2023-11-21T04:38:21;3.47;;;1.50;;
41532;SDS011;27262;-35.248;149.138;2023-11-21T04:41:11;3.92;;;1.45;;
41532;SDS011;27262;-35.248;149.138;2023-11-21T04:44:02;2.20;;;1.50;;
41532;SDS011;27262;-35.248;149.138;2023-11-21T04:46:53;3.22;;;1.40;;
41532;SDS011;27262;-35.248;149.138;2023-11-21T04:49:45;7.97;;;1.85;;
41532;SDS011;27262;-35.248;149.138;2023-11-21T04:52:36;3.08;;;1.42;;
41532;SDS011;27262;-35.248;149.138;2023-11-21T04:55:26;8.63;;;1.80;;
41532;SDS011;27262;-35.248;149.138;2023-11-21T04:58:17;11.77;;;1.85;;
41532;SDS011;27262;-35.248;149.138;2023-11-21T05:01:09;3.40;;;1.38;;
41532;SDS011;27262;-35.248;149.138;2023-11-21T05:04:00;2.22;;;1.70;;
41532;SDS011;27262;-35.248;149.138;2023-11-21T05:06:51;4.13;;;1.58;;
41532;SDS011;27262;-35.248;149.138;2023-11-21T05:09:42;4.18;;;1.67;;
41532;SDS011;27262;-35.248;149.138;2023-11-21T05:12:35;1.27;;;1.17;;
41532;SDS011;27262;-35.248;149.138;2023-11-21T05:15:26;3.88;;;1.80;;
41532;SDS011;27262;-35.248;149.138;2023-11-21T05:18:16;2.30;;;1.45;;
41532;SDS011;27262;-35.248;149.138;2023-11-21T05:21:07;6.55;;;1.70;;
41532;SDS011;27262;-35.248;149.138;2023-11-21T05:23:58;1.60;;;1.20;;
41532;SDS011;27262;-35.248;149.138;2023-11-21T05:26:48;3.22;;;1.45;;
41532;SDS011;27262;-35.248;149.138;2023-11-21T05:29:39;4.60;;;1.40;;
41532;SDS011;27262;-35.248;149.138;2023-11-21T05:32:29;5.35;;;1.65;;
41532;SDS011;27262;-35.248;149.138;2023-11-21T05:35:19;2.08;;;1.50;;
41532;SDS011;27262;-35.248;149.138;2023-11-21T05:38:10;2.60;;;1.40;;
41532;SDS011;27262;-35.248;149.138;2023-11-21T05:41:01;4.60;;;1.50;;
41532;SDS011;27262;-35.248;149.138;2023-11-21T05:43:52;6.03;;;1.55;;
41532;SDS011;27262;-35.248;149.138;2023-11-21T05:46:43;5.05;;;1.50;;
41532;SDS011;27262;-35.248;149.138;2023-11-21T05:49:33;2.70;;;1.20;;
41532;SDS011;27262;-35.248;149.138;2023-11-21T05:52:24;5.57;;;1.73;;
41532;SDS011;27262;-35.248;149.138;2023-11-21T05:55:14;4.65;;;1.52;;
41532;SDS011;27262;-35.248;149.138;2023-11-21T05:58:05;3.08;;;1.50;;
41532;SDS011;27262;-35.248;149.138;2023-11-21T06:00:56;2.25;;;1.30;;
41532;SDS011;27262;-35.248;149.138;2023-11-21T06:03:49;2.17;;;1.20;;
41532;SDS011;27262;-35.248;149.138;2023-11-21T06:06:41;3.47;;;1.52;;
41532;SDS011;27262;-35.248;149.138;2023-11-21T06:09:32;2.55;;;1.50;;
41532;SDS011;27262;-35.248;149.138;2023-11-21T06:12:23;3.50;;;1.20;;
41532;SDS011;27262;-35.248;149.138;2023-11-21T06:15:13;5.90;;;1.10;;
41532;SDS011;27262;-35.248;149.138;2023-11-21T06:18:04;2.70;;;1.30;;
41532;SDS011;27262;-35.248;149.138;2023-11-21T06:21:02;7.13;;;1.75;;
41532;SDS011;27262;-35.248;149.138;2023-11-21T06:23:53;4.75;;;1.20;;
41532;SDS011;27262;-35.248;149.138;2023-11-21T06:26:46;2.45;;;1.27;;
41532;SDS011;27262;-35.248;149.138;2023-11-21T06:29:37;2.47;;;1.52;;
41532;SDS011;27262;-35.248;149.138;2023-11-21T06:32:27;4.75;;;1.52;;
41532;SDS011;27262;-35.248;149.138;2023-11-21T06:35:18;6.18;;;1.67;;
41532;SDS011;27262;-35.248;149.138;2023-11-21T06:38:09;11.27;;;1.77;;
41532;SDS011;27262;-35.248;149.138;2023-11-21T06:41:00;4.63;;;1.60;;
41532;SDS011;27262;-35.248;149.138;2023-11-21T06:43:52;5.22;;;1.30;;
41532;SDS011;27262;-35.248;149.138;2023-11-21T06:46:43;4.05;;;1.65;;
41532;SDS011;27262;-35.248;149.138;2023-11-21T06:49:33;4.05;;;1.38;;
41532;SDS011;27262;-35.248;149.138;2023-11-21T06:52:24;3.80;;;1.35;;
41532;SDS011;27262;-35.248;149.138;2023-11-21T06:55:15;4.53;;;1.50;;
41532;SDS011;27262;-35.248;149.138;2023-11-21T06:58:05;5.18;;;1.50;;
41532;SDS011;27262;-35.248;149.138;2023-11-21T07:00:56;1.83;;;1.33;;
41532;SDS011;27262;-35.248;149.138;2023-11-21T07:03:47;1.98;;;1.00;;
41532;SDS011;27262;-35.248;149.138;2023-11-21T07:06:37;2.67;;;1.13;;
41532;SDS011;27262;-35.248;149.138;2023-11-21T07:09:28;4.93;;;1.70;;
41532;SDS011;27262;-35.248;149.138;2023-11-21T07:12:19;3.63;;;1.30;;
41532;SDS011;27262;-35.248;149.138;2023-11-21T07:15:12;4.93;;;1.88;;
41532;SDS011;27262;-35.248;149.138;2023-11-21T07:18:02;2.83;;;1.20;;
41532;SDS011;27262;-35.248;149.138;2023-11-21T07:20:53;2.00;;;1.35;;
41532;SDS011;27262;-35.248;149.138;2023-11-21T07:23:44;8.00;;;1.77;;
41532;SDS011;27262;-35.248;149.138;2023-11-21T07:26:34;2.15;;;1.33;;
41532;SDS011;27262;-35.248;149.138;2023-11-21T07:29:26;1.38;;;1.20;;
41532;SDS011;27262;-35.248;149.138;2023-11-21T07:32:18;1.75;;;1.33;;
41532;SDS011;27262;-35.248;149.138;2023-11-21T07:35:09;2.42;;;1.40;;
41532;SDS011;27262;-35.248;149.138;2023-11-21T07:38:00;2.63;;;1.20;;
41532;SDS011;27262;-35.248;149.138;2023-11-21T07:40:51;2.60;;;1.30;;
41532;SDS011;27262;-35.248;149.138;2023-11-21T07:43:42;3.85;;;1.75;;
41532;SDS011;27262;-35.248;149.138;2023-11-21T07:46:34;2.97;;;1.40;;
41532;SDS011;27262;-35.248;149.138;2023-11-21T07:49:24;1.63;;;1.50;;
41532;SDS011;27262;-35.248;149.138;2023-11-21T07:52:15;3.70;;;1.50;;
41532;SDS011;27262;-35.248;149.138;2023-11-21T07:55:06;2.55;;;1.40;;
41532;SDS011;27262;-35.248;149.138;2023-11-21T07:57:57;2.83;;;1.58;;
41532;SDS011;27262;-35.248;149.138;2023-11-21T08:00:49;3.72;;;1.48;;
41532;SDS011;27262;-35.248;149.138;2023-11-21T08:03:39;1.38;;;1.27;;
41532;SDS011;27262;-35.248;149.138;2023-11-21T08:06:30;2.97;;;1.10;;
41532;SDS011;27262;-35.248;149.138;2023-11-21T08:09:21;3.08;;;1.33;;
41532;SDS011;27262;-35.248;149.138;2023-11-21T08:12:12;2.65;;;1.17;;
41532;SDS011;27262;-35.248;149.138;2023-11-21T08:15:04;3.67;;;1.20;;
41532;SDS011;27262;-35.248;149.138;2023-11-21T08:17:55;2.92;;;1.25;;
41532;SDS011;27262;-35.248;149.138;2023-11-21T08:20:45;2.40;;;1.40;;
41532;SDS011;27262;-35.248;149.138;2023-11-21T08:23:38;2.40;;;1.52;;
41532;SDS011;27262;-35.248;149.138;2023-11-21T08:26:29;2.22;;;1.50;;
41532;SDS011;27262;-35.248;149.138;2023-11-21T08:29:19;2.35;;;1.17;;
41532;SDS011;27262;-35.248;149.138;2023-11-21T08:32:10;5.20;;;1.85;;
41532;SDS011;27262;-35.248;149.138;2023-11-21T08:34:40;2.85;;;1.10;;
41532;SDS011;27262;-35.248;149.138;2023-11-21T08:37:16;1.38;;;1.00;;
41532;SDS011;27262;-35.248;149.138;2023-11-21T08:39:47;4.90;;;1.00;;
41532;SDS011;27262;-35.248;149.138;2023-11-21T08:42:18;1.55;;;1.35;;
41532;SDS011;27262;-35.248;149.138;2023-11-21T08:44:49;2.00;;;1.30;;
41532;SDS011;27262;-35.248;149.138;2023-11-21T08:47:19;2.35;;;1.33;;
41532;SDS011;27262;-35.248;149.138;2023-11-21T08:49:52;1.38;;;1.10;;
41532;SDS011;27262;-35.248;149.138;2023-11-21T08:52:23;1.83;;;1.23;;
41532;SDS011;27262;-35.248;149.138;2023-11-21T08:54:53;1.58;;;1.10;;
41532;SDS011;27262;-35.248;149.138;2023-11-21T08:57:31;1.17;;;1.10;;
41532;SDS011;27262;-35.248;149.138;2023-11-21T09:00:02;4.65;;;1.45;;
41532;SDS011;27262;-35.248;149.138;2023-11-21T09:02:40;1.60;;;1.30;;
41532;SDS011;27262;-35.248;149.138;2023-11-21T09:05:11;1.42;;;1.27;;
41532;SDS011;27262;-35.248;149.138;2023-11-21T09:07:42;1.17;;;1.10;;
41532;SDS011;27262;-35.248;149.138;2023-11-21T09:10:14;1.20;;;0.98;;
41532;SDS011;27262;-35.248;149.138;2023-11-21T09:12:45;4.10;;;1.08;;
41532;SDS011;27262;-35.248;149.138;2023-11-21T09:15:15;4.47;;;1.55;;
41532;SDS011;27262;-35.248;149.138;2023-11-21T09:17:46;1.70;;;1.15;;
41532;SDS011;27262;-35.248;149.138;2023-11-21T09:20:17;2.17;;;1.10;;
41532;SDS011;27262;-35.248;149.138;2023-11-21T09:22:50;1.23;;;1.00;;
41532;SDS011;27262;-35.248;149.138;2023-11-21T09:25:20;1.80;;;1.20;;
41532;SDS011;27262;-35.248;149.138;2023-11-21T09:27:51;1.52;;;1.38;;
41532;SDS011;27262;-35.248;149.138;2023-11-21T09:30:22;1.73;;;1.20;;
41532;SDS011;27262;-35.248;149.138;2023-11-21T09:32:53;2.30;;;1.08;;
41532;SDS011;27262;-35.248;149.138;2023-11-21T09:35:23;1.92;;;1.15;;
41532;SDS011;27262;-35.248;149.138;2023-11-21T09:37:54;4.38;;;1.45;;
41532;SDS011;27262;-35.248;149.138;2023-11-21T09:40:24;3.78;;;1.13;;
41532;SDS011;27262;-35.248;149.138;2023-11-21T09:42:56;1.60;;;1.35;;
41532;SDS011;27262;-35.248;149.138;2023-11-21T09:45:34;2.55;;;1.25;;
41532;SDS011;27262;-35.248;149.138;2023-11-21T09:48:05;1.13;;;1.02;;
41532;SDS011;27262;-35.248;149.138;2023-11-21T09:50:36;2.03;;;1.05;;
41532;SDS011;27262;-35.248;149.138;2023-11-21T09:53:12;1.77;;;1.00;;
41532;SDS011;27262;-35.248;149.138;2023-11-21T09:55:50;1.25;;;1.15;;
41532;SDS011;27262;-35.248;149.138;2023-11-21T09:58:22;1.33;;;1.20;;
41532;SDS011;27262;-35.248;149.138;2023-11-21T10:00:53;1.75;;;1.10;;
41532;SDS011;27262;-35.248;149.138;2023-11-21T10:03:25;3.03;;;1.40;;
41532;SDS011;27262;-35.248;149.138;2023-11-21T10:05:56;1.40;;;1.20;;
41532;SDS011;27262;-35.248;149.138;2023-11-21T10:08:29;1.30;;;1.00;;
41532;SDS011;27262;-35.248;149.138;2023-11-21T10:11:15;1.05;;;0.95;;
41532;SDS011;27262;-35.248;149.138;2023-11-21T10:13:51;1.38;;;1.10;;
41532;SDS011;27262;-35.248;149.138;2023-11-21T10:16:25;2.15;;;1.10;;
41532;SDS011;27262;-35.248;149.138;2023-11-21T10:18:57;1.42;;;1.13;;
41532;SDS011;27262;-35.248;149.138;2023-11-21T10:21:38;1.00;;;0.90;;
41532;SDS011;27262;-35.248;149.138;2023-11-21T10:24:08;1.80;;;1.17;;
41532;SDS011;27262;-35.248;149.138;2023-11-21T10:26:41;2.85;;;1.20;;
41532;SDS011;27262;-35.248;149.138;2023-11-21T10:29:19;0.80;;;0.80;;
41532;SDS011;27262;-35.248;149.138;2023-11-21T10:31:50;4.50;;;1.00;;
41532;SDS011;27262;-35.248;149.138;2023-11-21T10:34:24;4.07;;;0.90;;
41532;SDS011;27262;-35.248;149.138;2023-11-21T10:36:56;1.30;;;1.00;;
41532;SDS011;27262;-35.248;149.138;2023-11-21T10:39:26;1.73;;;1.00;;
41532;SDS011;27262;-35.248;149.138;2023-11-21T10:41:59;4.30;;;0.98;;
41532;SDS011;27262;-35.248;149.138;2023-11-21T10:44:30;1.42;;;1.00;;
41532;SDS011;27262;-35.248;149.138;2023-11-21T10:47:00;0.80;;;0.80;;
41532;SDS011;27262;-35.248;149.138;2023-11-21T10:49:31;4.25;;;1.15;;
41532;SDS011;27262;-35.248;149.138;2023-11-21T10:52:01;1.52;;;1.02;;
41532;SDS011;27262;-35.248;149.138;2023-11-21T10:54:32;1.15;;;1.00;;
41532;SDS011;27262;-35.248;149.138;2023-11-21T10:57:04;1.00;;;0.90;;
41532;SDS011;27262;-35.248;149.138;2023-11-21T10:59:36;1.25;;;0.98;;
41532;SDS011;27262;-35.248;149.138;2023-11-21T11:02:15;5.05;;;0.90;;
41532;SDS011;27262;-35.248;149.138;2023-11-21T11:04:49;1.67;;;1.10;;
41532;SDS011;27262;-35.248;149.138;2023-11-21T11:07:24;3.53;;;1.02;;
41532;SDS011;27262;-35.248;149.138;2023-11-21T11:09:58;3.90;;;1.08;;
41532;SDS011;27262;-35.248;149.138;2023-11-21T11:12:29;1.55;;;0.98;;
41532;SDS011;27262;-35.248;149.138;2023-11-21T11:14:59;1.08;;;0.80;;
41532;SDS011;27262;-35.248;149.138;2023-11-21T11:17:33;1.38;;;0.90;;
41532;SDS011;27262;-35.248;149.138;2023-11-21T11:20:08;1.20;;;1.10;;
41532;SDS011;27262;-35.248;149.138;2023-11-21T11:22:44;1.75;;;0.88;;
41532;SDS011;27262;-35.248;149.138;2023-11-21T11:28:20;2.75;;;1.15;;
41532;SDS011;27262;-35.248;149.138;2023-11-21T11:31:14;1.10;;;1.00;;
41532;SDS011;27262;-35.248;149.138;2023-11-21T11:34:08;1.70;;;0.88;;
41532;SDS011;27262;-35.248;149.138;2023-11-21T11:37:03;2.05;;;0.98;;
41532;SDS011;27262;-35.248;149.138;2023-11-21T11:39:42;1.60;;;0.90;;
41532;SDS011;27262;-35.248;149.138;2023-11-21T11:42:15;1.52;;;0.88;;
41532;SDS011;27262;-35.248;149.138;2023-11-21T11:44:51;0.85;;;0.75;;
41532;SDS011;27262;-35.248;149.138;2023-11-21T11:47:31;1.10;;;0.80;;
41532;SDS011;27262;-35.248;149.138;2023-11-21T11:50:08;1.13;;;0.75;;
41532;SDS011;27262;-35.248;149.138;2023-11-21T11:52:52;0.95;;;0.82;;
41532;SDS011;27262;-35.248;149.138;2023-11-21T11:55:24;1.15;;;0.90;;
41532;SDS011;27262;-35.248;149.138;2023-11-21T11:57:59;1.10;;;0.88;;
41532;SDS011;27262;-35.248;149.138;2023-11-21T12:03:01;2.30;;;0.90;;
41532;SDS011;27262;-35.248;149.138;2023-11-21T12:05:33;0.80;;;0.80;;
41532;SDS011;27262;-35.248;149.138;2023-11-21T12:08:08;0.80;;;0.80;;
41532;SDS011;27262;-35.248;149.138;2023-11-21T12:10:39;1.30;;;0.98;;
41532;SDS011;27262;-35.248;149.138;2023-11-21T12:13:11;2.42;;;0.90;;
41532;SDS011;27262;-35.248;149.138;2023-11-21T12:15:42;0.70;;;0.70;;
41532;SDS011;27262;-35.248;149.138;2023-11-21T12:18:14;0.82;;;0.80;;
41532;SDS011;27262;-35.248;149.138;2023-11-21T12:20:45;1.67;;;1.05;;
41532;SDS011;27262;-35.248;149.138;2023-11-21T12:23:17;1.50;;;0.70;;
41532;SDS011;27262;-35.248;149.138;2023-11-21T12:25:48;2.78;;;0.88;;
41532;SDS011;27262;-35.248;149.138;2023-11-21T12:28:19;3.58;;;0.80;;
41532;SDS011;27262;-35.248;149.138;2023-11-21T12:30:51;2.38;;;0.98;;
41532;SDS011;27262;-35.248;149.138;2023-11-21T12:33:40;0.88;;;0.80;;
41532;SDS011;27262;-35.248;149.138;2023-11-21T12:36:10;1.48;;;1.00;;
41532;SDS011;27262;-35.248;149.138;2023-11-21T12:38:41;0.80;;;0.80;;
41532;SDS011;27262;-35.248;149.138;2023-11-21T12:41:12;0.95;;;0.93;;
41532;SDS011;27262;-35.248;149.138;2023-11-21T12:43:42;0.60;;;0.50;;
41532;SDS011;27262;-35.248;149.138;2023-11-21T12:46:13;0.50;;;0.50;;
41532;SDS011;27262;-35.248;149.138;2023-11-21T12:48:46;1.05;;;0.95;;
41532;SDS011;27262;-35.248;149.138;2023-11-21T12:51:16;1.73;;;1.10;;
41532;SDS011;27262;-35.248;149.138;2023-11-21T12:53:47;2.17;;;0.82;;
41532;SDS011;27262;-35.248;149.138;2023-11-21T12:56:18;1.25;;;0.65;;
41532;SDS011;27262;-35.248;149.138;2023-11-21T12:58:53;1.00;;;0.90;;
41532;SDS011;27262;-35.248;149.138;2023-11-21T13:01:25;1.42;;;0.80;;
41532;SDS011;27262;-35.248;149.138;2023-11-21T13:03:58;1.63;;;0.80;;
41532;SDS011;27262;-35.248;149.138;2023-11-21T13:06:28;1.17;;;0.85;;
41532;SDS011;27262;-35.248;149.138;2023-11-21T13:09:03;0.82;;;0.80;;
41532;SDS011;27262;-35.248;149.138;2023-11-21T13:11:39;1.67;;;0.95;;
41532;SDS011;27262;-35.248;149.138;2023-11-21T13:14:10;0.93;;;0.80;;
41532;SDS011;27262;-35.248;149.138;2023-11-21T13:16:41;0.80;;;0.80;;
41532;SDS011;27262;-35.248;149.138;2023-11-21T13:19:15;0.85;;;0.85;;
41532;SDS011;27262;-35.248;149.138;2023-11-21T13:21:45;1.00;;;0.75;;
41532;SDS011;27262;-35.248;149.138;2023-11-21T13:24:17;0.85;;;0.82;;
41532;SDS011;27262;-35.248;149.138;2023-11-21T13:26:47;0.90;;;0.80;;
41532;SDS011;27262;-35.248;149.138;2023-11-21T13:29:18;0.80;;;0.80;;
41532;SDS011;27262;-35.248;149.138;2023-11-21T13:31:49;1.10;;;0.80;;
41532;SDS011;27262;-35.248;149.138;2023-11-21T13:34:21;1.00;;;0.90;;
41532;SDS011;27262;-35.248;149.138;2023-11-21T13:37:00;1.25;;;0.80;;
41532;SDS011;27262;-35.248;149.138;2023-11-21T13:39:32;0.70;;;0.70;;
41532;SDS011;27262;-35.248;149.138;2023-11-21T13:42:04;1.55;;;0.73;;
41532;SDS011;27262;-35.248;149.138;2023-11-21T13:44:34;1.00;;;0.65;;
41532;SDS011;27262;-35.248;149.138;2023-11-21T13:47:06;0.95;;;0.75;;
41532;SDS011;27262;-35.248;149.138;2023-11-21T13:49:37;0.98;;;0.70;;
41532;SDS011;27262;-35.248;149.138;2023-11-21T13:52:09;0.85;;;0.73;;
41532;SDS011;27262;-35.248;149.138;2023-11-21T13:54:44;1.08;;;0.70;;
41532;SDS011;27262;-35.248;149.138;2023-11-21T13:57:14;0.70;;;0.70;;
41532;SDS011;27262;-35.248;149.138;2023-11-21T13:59:45;0.50;;;0.50;;
41532;SDS011;27262;-35.248;149.138;2023-11-21T14:02:15;0.80;;;0.80;;
41532;SDS011;27262;-35.248;149.138;2023-11-21T14:04:53;0.60;;;0.60;;
41532;SDS011;27262;-35.248;149.138;2023-11-21T14:07:27;1.00;;;0.70;;
41532;SDS011;27262;-35.248;149.138;2023-11-21T14:10:08;0.77;;;0.77;;
41532;SDS011;27262;-35.248;149.138;2023-11-21T14:12:42;1.50;;;0.70;;
41532;SDS011;27262;-35.248;149.138;2023-11-21T14:15:14;1.25;;;0.60;;
41532;SDS011;27262;-35.248;149.138;2023-11-21T14:17:47;1.25;;;1.10;;
41532;SDS011;27262;-35.248;149.138;2023-11-21T14:20:18;0.80;;;0.80;;
41532;SDS011;27262;-35.248;149.138;2023-11-21T14:22:49;0.60;;;0.60;;
41532;SDS011;27262;-35.248;149.138;2023-11-21T14:25:20;0.73;;;0.70;;
41532;SDS011;27262;-35.248;149.138;2023-11-21T14:27:51;0.80;;;0.70;;
41532;SDS011;27262;-35.248;149.138;2023-11-21T14:30:21;0.90;;;0.70;;
41532;SDS011;27262;-35.248;149.138;2023-11-21T14:32:53;0.80;;;0.70;;
41532;SDS011;27262;-35.248;149.138;2023-11-21T14:35:23;1.23;;;0.60;;
41532;SDS011;27262;-35.248;149.138;2023-11-21T14:37:55;0.57;;;0.55;;
41532;SDS011;27262;-35.248;149.138;2023-11-21T14:40:27;0.60;;;0.60;;
41532;SDS011;27262;-35.248;149.138;2023-11-21T14:43:04;0.57;;;0.55;;
41532;SDS011;27262;-35.248;149.138;2023-11-21T14:45:35;0.65;;;0.65;;
41532;SDS011;27262;-35.248;149.138;2023-11-21T14:48:05;0.98;;;0.60;;
41532;SDS011;27262;-35.248;149.138;2023-11-21T14:50:44;0.70;;;0.70;;
41532;SDS011;27262;-35.248;149.138;2023-11-21T14:53:37;0.80;;;0.70;;
41532;SDS011;27262;-35.248;149.138;2023-11-21T14:56:26;1.08;;;0.80;;
41532;SDS011;27262;-35.248;149.138;2023-11-21T14:59:01;0.80;;;0.80;;
41532;SDS011;27262;-35.248;149.138;2023-11-21T15:01:35;0.70;;;0.70;;
41532;SDS011;27262;-35.248;149.138;2023-11-21T15:04:14;0.60;;;0.60;;
41532;SDS011;27262;-35.248;149.138;2023-11-21T15:06:57;0.90;;;0.80;;
41532;SDS011;27262;-35.248;149.138;2023-11-21T15:09:29;0.60;;;0.60;;
41532;SDS011;27262;-35.248;149.138;2023-11-21T15:12:02;0.55;;;0.50;;